createdAt,value
2022-10-13T00:01:13.401Z,50.40
2022-10-13T00:03:42.025Z,50.40
2022-10-13T00:06:11.156Z,50.50
2022-10-13T00:08:38.863Z,50.50
2022-10-13T00:11:17.253Z,50.50
2022-10-13T00:13:45.388Z,50.50
2022-10-13T00:16:14.433Z,50.50
2022-10-13T00:18:42.169Z,50.40
2022-10-13T00:21:12.519Z,50.40
2022-10-13T00:23:39.956Z,50.40
2022-10-13T00:26:09.044Z,50.50
2022-10-13T00:28:36.608Z,50.50
2022-10-13T00:31:03.818Z,50.50
2022-10-13T00:33:30.833Z,50.50
2022-10-13T00:35:57.828Z,50.50
2022-10-13T00:38:24.872Z,51.10
2022-10-13T00:40:55.040Z,50.60
2022-10-13T00:43:25.237Z,50.50
2022-10-13T00:45:53.264Z,50.60
2022-10-13T00:48:28.429Z,50.50
2022-10-13T00:50:58.352Z,50.50
2022-10-13T00:53:32.748Z,50.40
2022-10-13T00:55:59.895Z,50.30
2022-10-13T00:58:32.979Z,50.30
2022-10-13T01:01:00.166Z,50.30
2022-10-13T01:03:27.720Z,50.30
2022-10-13T01:05:59.352Z,50.30
2022-10-13T01:08:27.440Z,50.30
2022-10-13T01:11:22.862Z,50.30
2022-10-13T01:14:09.547Z,50.30
2022-10-13T01:17:05.431Z,50.30
2022-10-13T01:20:06.252Z,50.30
2022-10-13T01:23:12.988Z,50.30
2022-10-13T01:26:18.544Z,50.30
2022-10-13T01:29:25.253Z,50.30
2022-10-13T01:32:23.370Z,50.30
2022-10-13T01:35:03.344Z,50.30
2022-10-13T01:37:38.075Z,50.30
2022-10-13T01:40:24.115Z,50.30
2022-10-13T01:43:14.947Z,50.20
2022-10-13T01:45:57.123Z,50.20
2022-10-13T01:48:26.224Z,50.20
2022-10-13T01:50:55.744Z,50.20
2022-10-13T01:53:24.011Z,50.20
2022-10-13T01:55:53.262Z,50.20
2022-10-13T01:58:21.865Z,50.30
2022-10-13T02:01:06.242Z,50.30
2022-10-13T02:04:07.240Z,50.30
2022-10-13T02:06:51.971Z,50.30
2022-10-13T02:09:43.929Z,50.40
2022-10-13T02:12:39.871Z,50.30
2022-10-13T02:15:09.345Z,50.20
2022-10-13T02:17:36.748Z,50.20
2022-10-13T02:20:06.803Z,50.10
2022-10-13T02:22:40.908Z,50.10
2022-10-13T02:25:08.893Z,50.00
2022-10-13T02:27:35.946Z,50.00
2022-10-13T02:30:03.018Z,50.00
2022-10-13T02:32:30.128Z,50.00
2022-10-13T02:34:57.384Z,50.00
2022-10-13T02:37:25.905Z,50.00
2022-10-13T02:39:53.284Z,50.00
2022-10-13T02:42:20.815Z,50.00
2022-10-13T02:44:48.103Z,50.00
2022-10-13T02:47:15.171Z,50.00
2022-10-13T02:49:42.173Z,50.00
2022-10-13T02:52:09.194Z,49.90
2022-10-13T02:54:36.333Z,50.00
2022-10-13T02:57:03.458Z,50.00
2022-10-13T02:59:30.815Z,49.90
2022-10-13T03:01:57.847Z,49.90
2022-10-13T03:04:24.909Z,49.90
2022-10-13T03:06:51.929Z,49.90
2022-10-13T03:09:19.128Z,49.90
2022-10-13T03:11:46.620Z,49.90
2022-10-13T03:14:13.668Z,49.90
2022-10-13T03:16:40.683Z,49.80
2022-10-13T03:19:07.704Z,49.90
2022-10-13T03:21:34.776Z,49.90
2022-10-13T03:24:01.765Z,49.90
2022-10-13T03:26:28.931Z,49.90
2022-10-13T03:28:55.978Z,49.90
2022-10-13T03:31:23.262Z,49.90
2022-10-13T03:33:50.661Z,49.90
2022-10-13T03:36:18.494Z,49.90
2022-10-13T03:38:45.692Z,49.90
2022-10-13T03:41:17.958Z,49.90
2022-10-13T03:43:45.850Z,49.80
2022-10-13T03:46:14.804Z,49.70
2022-10-13T03:48:42.430Z,49.70
2022-10-13T03:51:15.528Z,49.70
2022-10-13T03:53:42.633Z,49.70
2022-10-13T03:56:15.575Z,49.70
2022-10-13T03:58:43.177Z,49.70
2022-10-13T04:01:12.822Z,49.60
2022-10-13T04:03:40.317Z,49.60
2022-10-13T04:06:07.555Z,49.60
2022-10-13T04:08:34.869Z,49.60
2022-10-13T04:11:04.388Z,49.60
2022-10-13T04:13:32.004Z,49.60
2022-10-13T04:16:03.755Z,50.20
2022-10-13T04:18:31.272Z,49.60
2022-10-13T04:20:58.351Z,49.60
2022-10-13T04:23:25.470Z,49.60
2022-10-13T04:25:52.515Z,49.60
2022-10-13T04:28:19.581Z,49.60
2022-10-13T04:30:49.384Z,49.60
2022-10-13T04:33:17.043Z,49.60
2022-10-13T04:35:44.228Z,49.60
2022-10-13T04:38:11.306Z,49.50
2022-10-13T04:40:38.448Z,49.40
2022-10-13T04:43:05.509Z,49.30
2022-10-13T04:45:32.597Z,49.30
2022-10-13T04:48:01.300Z,49.30
2022-10-13T04:50:28.853Z,49.20
2022-10-13T04:52:55.899Z,49.20
2022-10-13T04:55:22.960Z,49.20
2022-10-13T04:57:49.957Z,49.20
2022-10-13T05:00:17.486Z,49.10
2022-10-13T05:02:44.586Z,49.10
2022-10-13T05:05:11.805Z,49.00
2022-10-13T05:07:38.810Z,48.90
2022-10-13T05:10:06.019Z,48.80
2022-10-13T05:12:33.132Z,48.70
2022-10-13T05:15:00.926Z,48.60
2022-10-13T05:17:35.027Z,49.20
2022-10-13T05:20:02.767Z,48.60
2022-10-13T05:29:54.275Z,49.10
2022-10-13T05:39:15.084Z,49.20
2022-10-13T05:42:51.373Z,49.20
2022-10-13T05:54:33.872Z,48.90
2022-10-13T05:57:06.128Z,48.60
2022-10-13T05:59:41.987Z,48.70
2022-10-13T06:02:12.398Z,48.60
2022-10-13T06:04:44.801Z,48.50
2022-10-13T06:07:12.783Z,48.60
2022-10-13T06:09:41.509Z,48.70
2022-10-13T06:12:09.726Z,49.20
2022-10-13T06:14:36.935Z,49.40
2022-10-13T06:29:11.121Z,49.50
2022-10-13T06:31:38.208Z,49.40
2022-10-13T06:34:05.296Z,49.30
2022-10-13T06:36:32.315Z,49.10
2022-10-13T06:38:59.314Z,49.00
2022-10-13T06:41:26.560Z,48.90
2022-10-13T06:43:53.565Z,48.90
2022-10-13T06:46:20.711Z,48.90
2022-10-13T06:48:51.214Z,49.00
2022-10-13T06:51:18.260Z,48.80
2022-10-13T06:53:45.556Z,48.80
2022-10-13T06:56:14.348Z,48.70
2022-10-13T06:58:41.351Z,48.60
2022-10-13T07:01:09.309Z,48.40
2022-10-13T07:03:36.408Z,48.30
2022-10-13T07:06:05.270Z,48.20
2022-10-13T07:08:33.156Z,48.20
2022-10-13T07:11:00.309Z,48.20
2022-10-13T07:13:27.727Z,48.20
2022-10-13T07:15:54.897Z,48.10
2022-10-13T07:18:22.039Z,48.00
2022-10-13T07:20:49.115Z,47.70
2022-10-13T07:23:16.141Z,47.40
2022-10-13T07:25:43.167Z,47.30
2022-10-13T07:28:10.240Z,47.10
2022-10-13T07:30:39.623Z,47.00
2022-10-13T07:33:07.217Z,46.90
2022-10-13T07:35:34.389Z,46.70
2022-10-13T07:49:31.547Z,46.30
2022-10-13T07:51:58.601Z,46.40
2022-10-13T07:54:27.509Z,46.40
2022-10-13T07:56:56.083Z,46.50
2022-10-13T08:03:04.361Z,46.40
2022-10-13T08:05:31.378Z,46.40
2022-10-13T08:07:58.781Z,46.50
2022-10-13T08:10:26.590Z,46.50
2022-10-13T08:12:53.656Z,46.40
2022-10-13T08:15:20.737Z,46.20
2022-10-13T08:38:07.795Z,46.30
2022-10-13T08:40:35.357Z,46.80
2022-10-13T08:43:07.447Z,46.30
2022-10-13T08:45:42.484Z,46.70
2022-10-13T08:48:21.946Z,46.10
2022-10-13T08:50:54.467Z,46.10
2022-10-13T08:53:31.470Z,46.10
2022-10-13T08:56:10.477Z,46.10
2022-10-13T08:58:40.885Z,46.20
2022-10-13T09:01:15.723Z,46.30
2022-10-13T09:03:55.351Z,46.20
2022-10-13T09:06:29.023Z,46.10
2022-10-13T09:09:02.556Z,46.00
2022-10-13T09:11:34.322Z,46.00
2022-10-13T09:14:08.973Z,46.00
2022-10-13T09:16:45.114Z,46.00
2022-10-13T09:19:17.731Z,46.00
2022-10-13T09:21:45.723Z,46.00
2022-10-13T09:24:16.362Z,45.80
2022-10-13T09:26:46.898Z,45.50
2022-10-13T09:29:21.712Z,45.10
2022-10-13T09:31:48.900Z,45.10
2022-10-13T09:34:25.935Z,45.20
2022-10-13T09:37:01.243Z,45.50
2022-10-13T09:39:29.183Z,45.60
2022-10-13T09:42:25.819Z,45.80
2022-10-13T09:45:14.985Z,45.80
2022-10-13T09:47:49.427Z,45.90
2022-10-13T09:50:19.546Z,45.90
2022-10-13T09:52:48.136Z,45.80
2022-10-13T09:55:34.521Z,45.90
2022-10-13T09:58:16.190Z,45.90
2022-10-13T10:00:43.838Z,46.00
2022-10-13T10:03:28.034Z,45.90
2022-10-13T10:05:58.170Z,45.80
2022-10-13T10:09:04.541Z,45.80
2022-10-13T10:11:41.591Z,45.70
2022-10-13T10:14:26.374Z,45.60
2022-10-13T10:17:23.515Z,45.10
2022-10-13T10:20:10.288Z,44.10
2022-10-13T10:23:06.194Z,44.80
2022-10-13T10:25:59.411Z,44.90
2022-10-13T10:29:00.942Z,45.20
2022-10-13T10:31:49.820Z,45.30
2022-10-13T10:34:50.734Z,45.40
2022-10-13T10:37:39.952Z,45.50
2022-10-13T10:40:34.872Z,45.50
2022-10-13T10:43:26.430Z,45.30
2022-10-13T10:45:57.908Z,44.40
2022-10-13T10:48:33.117Z,44.90
2022-10-13T10:51:01.318Z,45.20
2022-10-13T10:53:45.359Z,45.20
2022-10-13T10:56:38.494Z,45.40
2022-10-13T10:59:36.737Z,45.50
2022-10-13T11:02:34.171Z,45.40
2022-10-13T11:05:06.084Z,45.50
2022-10-13T11:07:55.630Z,45.50
2022-10-13T11:10:23.609Z,45.50
2022-10-13T11:13:17.495Z,45.50
2022-10-13T11:15:46.481Z,45.50
2022-10-13T11:18:53.305Z,45.40
2022-10-13T11:21:20.612Z,45.40
2022-10-13T11:23:49.715Z,45.40
2022-10-13T11:26:31.350Z,45.30
2022-10-13T11:28:59.829Z,45.30
2022-10-13T11:31:35.929Z,45.20
2022-10-13T11:34:04.003Z,45.20
2022-10-13T11:36:55.784Z,45.30
2022-10-13T11:39:50.424Z,45.20
2022-10-13T11:42:36.218Z,45.10
2022-10-13T11:45:22.889Z,45.10
2022-10-13T11:48:28.458Z,45.10
2022-10-13T11:51:23.942Z,45.00
2022-10-13T11:54:13.213Z,45.00
2022-10-13T11:56:53.323Z,44.90
2022-10-13T11:59:33.138Z,45.00
2022-10-13T12:02:19.463Z,45.00
2022-10-13T12:05:05.362Z,44.90
2022-10-13T12:07:36.364Z,44.90
2022-10-13T12:10:07.487Z,44.80
2022-10-13T12:12:35.790Z,44.70
2022-10-13T12:15:06.799Z,44.70
2022-10-13T12:17:39.183Z,44.70
2022-10-13T12:20:23.459Z,44.60
2022-10-13T12:22:53.236Z,44.60
2022-10-13T12:25:23.081Z,44.60
2022-10-13T12:27:55.910Z,45.10
2022-10-13T12:30:26.338Z,44.50
2022-10-13T12:32:56.698Z,44.60
2022-10-13T12:35:29.935Z,44.60
2022-10-13T12:38:00.367Z,44.60
2022-10-13T12:40:28.632Z,44.60
2022-10-13T12:42:56.743Z,44.70
2022-10-13T12:45:31.650Z,44.70
2022-10-13T12:47:58.806Z,44.70
2022-10-13T12:50:36.650Z,44.70
2022-10-13T12:53:24.160Z,44.70
2022-10-13T12:55:59.249Z,44.70
2022-10-13T12:58:30.668Z,44.70
2022-10-13T13:01:18.951Z,44.70
2022-10-13T13:03:54.195Z,44.70
2022-10-13T13:06:25.336Z,44.70
2022-10-13T13:09:19.865Z,44.70
2022-10-13T13:11:47.676Z,44.60
2022-10-13T13:14:38.357Z,44.60
2022-10-13T13:17:52.947Z,44.60
2022-10-13T13:20:31.874Z,44.60
2022-10-13T13:22:59.397Z,44.70
2022-10-13T13:25:27.594Z,44.80
2022-10-13T13:27:54.664Z,44.80
2022-10-13T13:30:23.428Z,44.60
2022-10-13T13:32:51.008Z,44.60
2022-10-13T13:35:18.746Z,44.60
2022-10-13T13:37:53.933Z,44.60
2022-10-13T13:40:24.080Z,44.60
2022-10-13T13:42:51.149Z,44.60
2022-10-13T13:45:21.341Z,44.60
2022-10-13T13:47:48.447Z,44.60
2022-10-13T13:50:20.540Z,44.60
2022-10-13T13:52:47.652Z,44.60
2022-10-13T13:55:15.043Z,44.70
2022-10-13T13:57:42.893Z,44.70
2022-10-13T14:00:15.741Z,44.70
2022-10-13T14:02:44.050Z,44.70
2022-10-13T14:05:12.564Z,44.80
2022-10-13T14:07:40.403Z,44.80
2022-10-13T14:10:09.226Z,45.00
2022-10-13T14:12:36.300Z,45.10
2022-10-13T14:15:03.577Z,45.00
2022-10-13T14:17:30.628Z,45.70
2022-10-13T14:19:57.915Z,45.10
2022-10-13T14:22:25.253Z,45.00
2022-10-13T14:24:52.914Z,45.10
2022-10-13T14:27:19.935Z,45.00
2022-10-13T14:29:47.339Z,45.10
2022-10-13T14:32:15.335Z,44.90
2022-10-13T14:34:42.928Z,44.90
2022-10-13T14:37:10.060Z,44.70
2022-10-13T14:39:37.076Z,44.80
2022-10-13T14:42:04.184Z,44.80
2022-10-13T14:44:31.583Z,44.80
2022-10-13T14:46:58.554Z,44.80
2022-10-13T14:49:25.589Z,44.80
2022-10-13T14:51:52.605Z,44.90
2022-10-13T14:54:19.842Z,44.90
2022-10-13T14:56:47.899Z,44.90
2022-10-13T14:59:15.112Z,45.00
2022-10-13T15:01:43.209Z,45.10
2022-10-13T15:04:10.668Z,45.20
2022-10-13T15:06:39.481Z,45.30
2022-10-13T15:11:36.685Z,45.80
2022-10-13T15:14:03.872Z,46.00
2022-10-13T15:16:37.717Z,46.20
2022-10-13T15:19:04.875Z,46.40
2022-10-13T15:21:31.915Z,46.40
2022-10-13T15:23:59.026Z,46.50
2022-10-13T15:26:26.076Z,46.50
2022-10-13T15:28:53.974Z,46.60
2022-10-13T15:31:22.352Z,46.80
2022-10-13T15:33:51.890Z,46.90
2022-10-13T15:36:20.267Z,47.10
2022-10-13T15:38:47.491Z,48.50
2022-10-13T15:41:14.645Z,49.30
2022-10-13T15:43:41.731Z,49.80
2022-10-13T15:46:12.454Z,49.60
2022-10-13T15:48:39.630Z,49.30
2022-10-13T15:51:15.323Z,49.00
2022-10-13T15:53:42.554Z,48.50
2022-10-13T15:56:09.707Z,48.30
2022-10-13T15:58:36.763Z,48.30
2022-10-13T16:01:12.164Z,48.20
2022-10-13T16:03:39.688Z,48.20
2022-10-13T16:06:09.292Z,48.20
2022-10-13T16:08:37.610Z,48.20
2022-10-13T16:11:12.857Z,48.30
2022-10-13T16:13:40.829Z,48.30
2022-10-13T16:16:08.526Z,48.30
2022-10-13T16:18:37.603Z,48.30
2022-10-13T16:21:23.642Z,48.40
2022-10-13T16:23:50.684Z,48.40
2022-10-13T16:26:18.416Z,48.40
2022-10-13T16:28:46.962Z,48.60
2022-10-13T16:31:16.636Z,48.70
2022-10-13T16:33:45.340Z,48.80
2022-10-13T16:36:19.682Z,48.90
2022-10-13T16:38:48.093Z,48.90
2022-10-13T16:41:18.291Z,48.90
2022-10-13T16:43:45.882Z,49.00
2022-10-13T16:46:15.345Z,49.00
2022-10-13T16:48:44.303Z,49.00
2022-10-13T16:51:21.884Z,49.10
2022-10-13T16:53:59.838Z,49.10
2022-10-13T16:56:30.406Z,49.10
2022-10-13T16:59:00.376Z,49.10
2022-10-13T17:01:28.743Z,49.20
2022-10-13T17:03:56.604Z,49.20
2022-10-13T17:06:26.231Z,49.20
2022-10-13T17:08:53.368Z,49.20
2022-10-13T17:11:28.173Z,49.20
2022-10-13T17:13:57.325Z,49.30
2022-10-13T17:16:25.230Z,49.30
2022-10-13T17:18:52.242Z,49.30
2022-10-13T17:21:22.095Z,49.30
2022-10-13T17:23:49.742Z,49.30
2022-10-13T17:26:18.466Z,49.30
2022-10-13T17:28:45.852Z,49.30
2022-10-13T17:31:15.539Z,49.40
2022-10-13T17:33:43.555Z,49.40
2022-10-13T17:36:17.662Z,49.30
2022-10-13T17:38:45.868Z,49.30
2022-10-13T17:41:13.527Z,49.30
2022-10-13T17:43:41.487Z,49.30
2022-10-13T17:49:01.828Z,49.40
2022-10-13T17:51:28.983Z,49.40
2022-10-13T17:53:59.062Z,49.50
2022-10-13T17:56:26.871Z,49.50
2022-10-13T17:58:54.504Z,49.40
2022-10-13T18:01:33.655Z,49.40
2022-10-13T18:04:03.895Z,49.40
2022-10-13T18:06:38.046Z,49.40
2022-10-13T18:09:15.362Z,49.40
2022-10-13T18:11:48.723Z,49.40
2022-10-13T18:14:17.041Z,49.40
2022-10-13T18:16:44.138Z,49.40
2022-10-13T18:19:11.128Z,49.40
2022-10-13T18:21:38.120Z,49.40
2022-10-13T18:24:05.570Z,49.40
2022-10-13T18:26:35.827Z,49.40
2022-10-13T18:29:03.931Z,49.40
2022-10-13T18:31:32.823Z,49.40
2022-10-13T18:34:03.689Z,49.40
2022-10-13T18:36:42.996Z,49.40
2022-10-13T18:39:19.051Z,49.40
2022-10-13T18:41:46.666Z,49.50
2022-10-13T18:44:15.448Z,49.50
2022-10-13T18:46:42.747Z,49.40
2022-10-13T18:49:12.963Z,49.50
2022-10-13T18:51:40.061Z,49.50
2022-10-13T18:54:08.114Z,49.50
2022-10-13T18:56:37.066Z,49.50
2022-10-13T18:59:05.855Z,49.50
2022-10-13T19:01:35.600Z,49.50
2022-10-13T19:04:02.649Z,49.50
2022-10-13T19:06:32.484Z,49.50
2022-10-13T19:09:08.345Z,49.50
2022-10-13T19:11:36.198Z,49.50
2022-10-13T19:14:06.056Z,49.50
2022-10-13T19:16:37.205Z,49.60
2022-10-13T19:19:04.949Z,49.50
2022-10-13T19:21:32.784Z,49.50
2022-10-13T19:24:00.372Z,49.60
2022-10-13T19:26:30.951Z,49.50
2022-10-13T19:29:01.332Z,49.60
2022-10-13T19:31:30.870Z,49.60
2022-10-13T19:33:58.608Z,49.60
2022-10-13T19:36:37.728Z,49.70
2022-10-13T19:39:12.006Z,49.70
2022-10-13T19:41:39.432Z,49.70
2022-10-13T19:44:06.561Z,49.70
2022-10-13T19:46:35.728Z,49.80
2022-10-13T19:49:04.261Z,49.80
2022-10-13T19:51:31.552Z,49.70
2022-10-13T19:53:58.597Z,49.70
2022-10-13T19:56:31.713Z,49.70
2022-10-13T19:58:59.606Z,49.70
2022-10-13T20:01:27.024Z,49.70
2022-10-13T20:03:54.785Z,49.70
2022-10-13T20:06:22.232Z,49.70
2022-10-13T20:08:49.503Z,49.70
2022-10-13T20:11:23.486Z,49.70
2022-10-13T20:13:51.703Z,49.60
2022-10-13T20:16:21.498Z,49.70
2022-10-13T20:18:57.435Z,49.60
2022-10-13T20:21:25.834Z,49.70
2022-10-13T20:23:53.348Z,49.60
2022-10-13T20:26:21.429Z,49.60
2022-10-13T20:28:50.345Z,49.60
2022-10-13T20:31:19.981Z,49.60
2022-10-13T20:33:49.487Z,49.60
2022-10-13T20:36:18.074Z,49.60
2022-10-13T20:38:45.315Z,49.60
2022-10-13T20:41:28.455Z,49.60
2022-10-13T20:43:58.264Z,49.60
2022-10-13T20:46:25.959Z,49.60
2022-10-13T20:51:42.772Z,49.60
2022-10-13T20:54:11.697Z,49.60
2022-10-13T20:56:38.802Z,49.60
2022-10-13T20:59:07.775Z,49.60
2022-10-13T21:01:34.922Z,49.60
2022-10-13T21:04:01.973Z,49.60
2022-10-13T21:06:29.024Z,49.60
2022-10-13T21:08:56.505Z,49.60
2022-10-13T21:11:24.788Z,49.60
2022-10-13T21:13:52.511Z,49.60
2022-10-13T21:16:23.500Z,49.60
2022-10-13T21:18:51.755Z,49.60
2022-10-13T21:21:22.533Z,49.60
2022-10-13T21:23:53.948Z,49.60
2022-10-13T21:26:22.467Z,49.60
2022-10-13T21:28:50.791Z,49.60
2022-10-13T21:31:19.672Z,49.60
2022-10-13T21:33:46.684Z,49.60
2022-10-13T21:36:28.851Z,49.60
2022-10-13T21:38:59.832Z,49.70
2022-10-13T21:41:28.032Z,49.70
2022-10-13T21:43:55.823Z,49.70
2022-10-13T21:46:26.031Z,49.70
2022-10-13T21:48:55.314Z,49.70
2022-10-13T21:51:26.180Z,49.70
2022-10-13T21:53:55.076Z,49.60
2022-10-13T21:56:23.575Z,49.60
2022-10-13T21:58:50.693Z,49.60
2022-10-13T22:01:19.207Z,49.50
2022-10-13T22:03:47.397Z,49.50
2022-10-13T22:06:19.025Z,49.40
2022-10-13T22:08:49.093Z,49.40
2022-10-13T22:11:17.424Z,49.40
2022-10-13T22:13:44.438Z,49.40
2022-10-13T22:16:18.867Z,49.40
2022-10-13T22:18:46.154Z,49.50
2022-10-13T22:21:16.863Z,49.40
2022-10-13T22:23:44.925Z,49.40
2022-10-13T22:26:13.101Z,49.40
2022-10-13T22:28:40.565Z,49.40
2022-10-13T22:31:10.068Z,49.40
2022-10-13T22:33:39.298Z,49.40
2022-10-13T22:36:17.702Z,49.40
2022-10-13T22:38:46.327Z,49.40
2022-10-13T22:41:14.892Z,49.40
2022-10-13T22:43:44.498Z,49.40
2022-10-13T22:46:16.154Z,49.40
2022-10-13T22:48:44.121Z,49.40
2022-10-13T22:51:13.584Z,49.40
2022-10-13T22:53:40.542Z,49.40
2022-10-13T22:56:09.268Z,49.40
2022-10-13T22:58:36.541Z,49.30
2022-10-13T23:01:08.738Z,49.30
2022-10-13T23:03:36.217Z,49.40
2022-10-13T23:06:04.225Z,49.40
2022-10-13T23:08:31.772Z,49.40
2022-10-13T23:10:59.059Z,49.50
2022-10-13T23:13:26.639Z,49.40
2022-10-13T23:15:53.901Z,49.40
2022-10-13T23:18:20.913Z,49.40
2022-10-13T23:20:47.899Z,49.40
2022-10-13T23:23:14.907Z,49.40
2022-10-13T23:25:41.939Z,49.40
2022-10-13T23:28:09.451Z,49.40
2022-10-13T23:30:37.330Z,49.40
2022-10-13T23:33:04.327Z,49.40
2022-10-13T23:35:31.317Z,49.30
2022-10-13T23:37:58.489Z,49.20
2022-10-13T23:40:25.504Z,49.20
2022-10-13T23:42:52.565Z,49.20
2022-10-13T23:45:19.599Z,49.20
2022-10-13T23:47:46.648Z,49.20
2022-10-13T23:50:13.633Z,49.20
2022-10-13T23:52:40.641Z,49.20
2022-10-13T23:55:08.003Z,49.20
2022-10-13T23:57:35.175Z,49.10
